Observation data for Tulia on 06/15/2019      Previous  Date  Next       Current Mesonet Observations  Soil Data  Daily Summary Page  Observations in Plain Language
KTIS 150500Z 17015KT 25/16 A2983 RMK A01 T02540163  RH  060%=      5-min Rain = 0
KTIS 150505Z 17016G21KT 25/16 A2983 RMK A01 T02520163  RH  060%=      5-min Rain = 0
KTIS 150510Z 17017G23KT 25/16 A2983 RMK A01 T02520163  RH  061%=      5-min Rain = 0
KTIS 150515Z 18017G22KT 25/16 A2983 RMK A01 T02500164  RH  062%=      5-min Rain = 0
KTIS 150520Z 18017G22KT 25/17 A2983 RMK A01 T02490165  RH  062%=      5-min Rain = 0
KTIS 150525Z 18017G23KT 25/17 A2983 RMK A01 T02470165  RH  063%=      5-min Rain = 0
KTIS 150530Z 18017G23KT 25/17 A2983 RMK A01 T02470165  RH  063%=      5-min Rain = 0
KTIS 150535Z 18017G23KT 25/17 A2983 RMK A01 T02460165  RH  064%=      5-min Rain = 0
KTIS 150540Z 18018G25KT 25/17 A2983 RMK A01 T02460166  RH  064%=      5-min Rain = 0
KTIS 150545Z 18019G25KT 25/17 A2983 RMK A01 T02460166  RH  064%=      5-min Rain = 0
KTIS 150550Z 18018G23KT 24/17 A2983 RMK A01 T02440167  RH  065%=      5-min Rain = 0
KTIS 150555Z 18018G23KT 24/17 A2982 RMK A01 T02420167  RH  066%=      5-min Rain = 0
KTIS 150600Z 19017KT 24/17 A2982 RMK A01 T02400166  RH  067%=      5-min Rain = 0
KTIS 150605Z 19018G26KT 24/17 A2982 RMK A01 T02400167  RH  067%=      5-min Rain = 0
KTIS 150610Z 19018G26KT 24/17 A2982 RMK A01 T02410167  RH  067%=      5-min Rain = 0
KTIS 150615Z 19018G24KT 24/17 A2982 RMK A01 T02400167  RH  067%=      5-min Rain = 0
KTIS 150620Z 18020G26KT 24/17 A2982 RMK A01 T02400168  RH  067%=      5-min Rain = 0
KTIS 150625Z 19019G24KT 24/17 A2981 RMK A01 T02390168  RH  068%=      5-min Rain = 0
KTIS 150630Z 19019G24KT 24/17 A2982 RMK A01 T02380168  RH  068%=      5-min Rain = 0
KTIS 150635Z 19019G26KT 24/17 A2981 RMK A01 T02370169  RH  069%=      5-min Rain = 0
KTIS 150640Z 19019KT 24/17 A2981 RMK A01 T02360169  RH  069%=      5-min Rain = 0
KTIS 150645Z 19019G25KT 24/17 A2981 RMK A01 T02350169  RH  070%=      5-min Rain = 0
KTIS 150650Z 19020G25KT 24/17 A2981 RMK A01 T02350169  RH  070%=      5-min Rain = 0
KTIS 150655Z 19017G23KT 23/17 A2981 RMK A01 T02330169  RH  071%=      5-min Rain = 0
KTIS 150700Z 19018KT 23/17 A2981 RMK A01 T02320169  RH  071%=      5-min Rain = 0
KTIS 150705Z 19017G24KT 23/17 A2981 RMK A01 T02310170  RH  072%=      5-min Rain = 0
KTIS 150710Z 19016G22KT 23/17 A2981 RMK A01 T02300170  RH  072%=      5-min Rain = 0
KTIS 150715Z 19016G23KT 23/17 A2981 RMK A01 T02290170  RH  073%=      5-min Rain = 0
KTIS 150720Z 19016G21KT 23/17 A2981 RMK A01 T02280170  RH  073%=      5-min Rain = 0
KTIS 150725Z 19016KT 23/17 A2981 RMK A01 T02280170  RH  073%=      5-min Rain = 0
KTIS 150730Z 19016KT 23/17 A2981 RMK A01 T02270170  RH  074%=      5-min Rain = 0
KTIS 150735Z 19015G20KT 23/17 A2981 RMK A01 T02250170  RH  075%=      5-min Rain = 0
KTIS 150740Z 19015G20KT 22/17 A2981 RMK A01 T02240170  RH  075%=      5-min Rain = 0
KTIS 150745Z 19016G23KT 22/17 A2981 RMK A01 T02240170  RH  075%=      5-min Rain = 0
KTIS 150750Z 19016KT 22/17 A2981 RMK A01 T02230170  RH  076%=      5-min Rain = 0
KTIS 150755Z 19015G20KT 22/17 A2981 RMK A01 T02230171  RH  076%=      5-min Rain = 0
KTIS 150800Z 19016KT 22/17 A2981 RMK A01 T02220171  RH  076%=      5-min Rain = 0
KTIS 150805Z 19015G21KT 22/17 A2981 RMK A01 T02210171  RH  077%=      5-min Rain = 0
KTIS 150810Z 19015KT 22/17 A2981 RMK A01 T02200171  RH  078%=      5-min Rain = 0
KTIS 150815Z 19014G19KT 22/17 A2981 RMK A01 T02190171  RH  078%=      5-min Rain = 0
KTIS 150820Z 19015KT 22/17 A2981 RMK A01 T02180171  RH  078%=      5-min Rain = 0
KTIS 150825Z 19014KT 22/17 A2981 RMK A01 T02170171  RH  079%=      5-min Rain = 0
KTIS 150830Z 19013KT 22/17 A2981 RMK A01 T02160171  RH  080%=      5-min Rain = 0
KTIS 150835Z 18013KT 22/17 A2981 RMK A01 T02150171  RH  080%=      5-min Rain = 0
KTIS 150840Z 18014KT 21/17 A298 RMK A01 T02140171  RH  080%=      5-min Rain = 0
KTIS 150845Z 18013KT 21/17 A298 RMK A01 T02130171  RH  081%=      5-min Rain = 0
KTIS 150850Z 18013KT 21/17 A298 RMK A01 T02120171  RH  081%=      5-min Rain = 0
KTIS 150855Z 19013KT 21/17 A298 RMK A01 T02120171  RH  082%=      5-min Rain = 0
KTIS 150900Z 19014KT 21/17 A298 RMK A01 T02110171  RH  082%=      5-min Rain = 0
KTIS 150905Z 19013KT 21/17 A298 RMK A01 T02100171  RH  082%=      5-min Rain = 0
KTIS 150910Z 18012KT 21/17 A298 RMK A01 T02090171  RH  083%=      5-min Rain = 0
KTIS 150915Z 19012KT 21/17 A298 RMK A01 T02080170  RH  083%=      5-min Rain = 0
KTIS 150920Z 19011KT 21/17 A298 RMK A01 T02060170  RH  084%=      5-min Rain = 0
KTIS 150925Z 19011KT 20/17 A298 RMK A01 T02040169  RH  084%=      5-min Rain = 0
KTIS 150930Z 19012KT 20/17 A2981 RMK A01 T02040169  RH  084%=      5-min Rain = 0
KTIS 150935Z 18011KT 20/17 A2981 RMK A01 T02030169  RH  085%=      5-min Rain = 0
KTIS 150940Z 19011G16KT 20/17 A2981 RMK A01 T02030169  RH  085%=      5-min Rain = 0
KTIS 150945Z 19011KT 20/17 A2981 RMK A01 T02020168  RH  085%=      5-min Rain = 0
KTIS 150950Z 19010KT 20/17 A2981 RMK A01 T02010168  RH  085%=      5-min Rain = 0
KTIS 150955Z 20009KT 20/17 A2981 RMK A01 T01990167  RH  086%=      5-min Rain = 0
KTIS 151000Z 19009KT 20/17 A2981 RMK A01 T01980167  RH  086%=      5-min Rain = 0
KTIS 151005Z 20009KT 20/17 A2981 RMK A01 T01980167  RH  086%=      5-min Rain = 0
KTIS 151010Z 20008KT 20/17 A2982 RMK A01 T01970166  RH  086%=      5-min Rain = 0
KTIS 151015Z 21007KT 20/17 A2982 RMK A01 T01960165  RH  086%=      5-min Rain = 0
KTIS 151020Z 21006KT 20/16 A2982 RMK A01 T01950164  RH  086%=      5-min Rain = 0
KTIS 151025Z 22006KT 20/16 A2982 RMK A01 T01960164  RH  086%=      5-min Rain = 0
KTIS 151030Z 24005KT 20/16 A2982 RMK A01 T01950163  RH  086%=      5-min Rain = 0
KTIS 151035Z 24004KT 20/16 A2982 RMK A01 T01950162  RH  085%=      5-min Rain = 0
KTIS 151040Z 23004KT 19/16 A2983 RMK A01 T01940160  RH  085%=      5-min Rain = 0
KTIS 151045Z 21006KT 19/16 A2983 RMK A01 T01940159  RH  084%=      5-min Rain = 0
KTIS 151050Z 20009KT 19/16 A2982 RMK A01 T01920158  RH  084%=      5-min Rain = 0
KTIS 151055Z 20010G15KT 19/16 A2981 RMK A01 T01920156  RH  084%=      5-min Rain = 0
KTIS 151100Z 19011KT 19/16 A2981 RMK A01 T01910155  RH  083%=      5-min Rain = 0
KTIS 151105Z 20008KT 19/15 A2982 RMK A01 T01910154  RH  082%=      5-min Rain = 0
KTIS 151110Z 22007KT 19/15 A2982 RMK A01 T01900153  RH  082%=      5-min Rain = 0
KTIS 151115Z 21008KT 19/15 A2982 RMK A01 T01910152  RH  082%=      5-min Rain = 0
KTIS 151120Z 19010KT 19/15 A2982 RMK A01 T01890150  RH  082%=      5-min Rain = 0
KTIS 151125Z 19011KT 19/15 A2981 RMK A01 T01870150  RH  082%=      5-min Rain = 0
KTIS 151130Z 20011G16KT 19/15 A2981 RMK A01 T01900149  RH  081%=      5-min Rain = 0
KTIS 151135Z 21010KT 19/15 A2982 RMK A01 T01890148  RH  081%=      5-min Rain = 0
KTIS 151140Z 21011KT 19/15 A2982 RMK A01 T01910147  RH  079%=      5-min Rain = 0
KTIS 151145Z 22010KT 19/15 A2982 RMK A01 T01920147  RH  079%=      5-min Rain = 0
KTIS 151150Z 22011KT 19/15 A2982 RMK A01 T01920147  RH  079%=      5-min Rain = 0
KTIS 151155Z 22011KT 19/15 A2981 RMK A01 T01900147  RH  079%=      5-min Rain = 0
KTIS 151200Z 22012KT 19/15 A2981 RMK A01 T01890147  RH  080%=      5-min Rain = 0
KTIS 151205Z 22011KT 19/15 A2982 RMK A01 T01890146  RH  079%=      5-min Rain = 0
KTIS 151210Z 22012KT 19/15 A2982 RMK A01 T01900146  RH  079%=      5-min Rain = 0
KTIS 151215Z 22012G17KT 19/15 A2982 RMK A01 T01910145  RH  078%=      5-min Rain = 0
KTIS 151220Z 23011KT 19/14 A2982 RMK A01 T01920144  RH  077%=      5-min Rain = 0
KTIS 151225Z 23011KT 19/14 A2982 RMK A01 T01920144  RH  077%=      5-min Rain = 0
KTIS 151230Z 24010G15KT 19/14 A2982 RMK A01 T01930142  RH  075%=      5-min Rain = 0
KTIS 151235Z 24010KT 20/14 A2982 RMK A01 T01950141  RH  074%=      5-min Rain = 0
KTIS 151240Z 24011KT 20/14 A2982 RMK A01 T01960139  RH  072%=      5-min Rain = 0
KTIS 151245Z 24011KT 20/14 A2982 RMK A01 T01970138  RH  071%=      5-min Rain = 0
KTIS 151250Z 24012KT 20/13 A2982 RMK A01 T01980134  RH  069%=      5-min Rain = 0
KTIS 151255Z 24011KT 20/13 A2982 RMK A01 T02000131  RH  067%=      5-min Rain = 0
KTIS 151300Z 25011KT 20/13 A2982 RMK A01 T02000128  RH  066%=      5-min Rain = 0
KTIS 151305Z 25009KT 20/12 A2982 RMK A01 T02010123  RH  063%=      5-min Rain = 0
KTIS 151310Z 26010G16KT 20/12 A2982 RMK A01 T02000118  RH  061%=      5-min Rain = 0
KTIS 151315Z 27010KT 20/12 A2982 RMK A01 T01970115  RH  061%=      5-min Rain = 0
KTIS 151320Z 27011G16KT 19/11 A2982 RMK A01 T01940106  RH  059%=      5-min Rain = 0
KTIS 151325Z 28011KT 19/10 A2982 RMK A01 T01940100  RH  057%=      5-min Rain = 0
KTIS 151330Z 28011KT 19/10 A2983 RMK A01 T01930097  RH  056%=      5-min Rain = 0
KTIS 151335Z 28011KT 19/09 A2983 RMK A01 T01930094  RH  054%=      5-min Rain = 0
KTIS 151340Z 28010KT 20/10 A2983 RMK A01 T01960095  RH  054%=      5-min Rain = 0
KTIS 151345Z 30011KT 20/10 A2983 RMK A01 T01980097  RH  054%=      5-min Rain = 0
KTIS 151350Z 29010KT 20/10 A2983 RMK A01 T01990103  RH  056%=      5-min Rain = 0
KTIS 151355Z 31012KT 20/11 A2983 RMK A01 T01970113  RH  060%=      5-min Rain = 0
KTIS 151400Z 30010KT 20/12 A2983 RMK A01 T01980120  RH  063%=      5-min Rain = 0
KTIS 151405Z 30011KT 20/13 A2983 RMK A01 T02010126  RH  064%=      5-min Rain = 0
KTIS 151410Z 30011KT 21/13 A2983 RMK A01 T02050130  RH  065%=      5-min Rain = 0
KTIS 151415Z 30011KT 21/13 A2984 RMK A01 T02100133  RH  064%=      5-min Rain = 0
KTIS 151420Z 30013KT 21/13 A2984 RMK A01 T02120133  RH  063%=      5-min Rain = 0
KTIS 151425Z 31012KT 22/14 A2984 RMK A01 T02160136  RH  063%=      5-min Rain = 0
KTIS 151430Z 30013KT 22/14 A2984 RMK A01 T02180136  RH  062%=      5-min Rain = 0
KTIS 151435Z 30013KT 22/14 A2984 RMK A01 T02220138  RH  061%=      5-min Rain = 0
KTIS 151440Z 31015KT 22/14 A2984 RMK A01 T02240138  RH  061%=      5-min Rain = 0
KTIS 151445Z 31013G18KT 23/14 A2984 RMK A01 T02270140  RH  060%=      5-min Rain = 0
KTIS 151450Z 30015KT 23/14 A2984 RMK A01 T02310140  RH  059%=      5-min Rain = 0
KTIS 151455Z 30014KT 23/14 A2984 RMK A01 T02320141  RH  059%=      5-min Rain = 0
KTIS 151500Z 30014G19KT 24/14 A2985 RMK A01 T02380144  RH  058%=      5-min Rain = 0
KTIS 151505Z 31013KT 24/14 A2985 RMK A01 T02400144  RH  057%=      5-min Rain = 0
KTIS 151510Z 31014KT 24/14 A2985 RMK A01 T02420144  RH  057%=      5-min Rain = 0
KTIS 151515Z 32014KT 24/14 A2986 RMK A01 T02430144  RH  056%=      5-min Rain = 0
KTIS 151520Z 32014KT 25/15 A2986 RMK A01 T02460145  RH  055%=      5-min Rain = 0
KTIS 151525Z 32013KT 25/15 A2987 RMK A01 T02470148  RH  056%=      5-min Rain = 0
KTIS 151530Z 32014KT 25/15 A2987 RMK A01 T02520150  RH  056%=      5-min Rain = 0
KTIS 151535Z 32014KT 25/15 A2987 RMK A01 T02510151  RH  056%=      5-min Rain = 0
KTIS 151540Z 33014KT 26/15 A2986 RMK A01 T02560154  RH  056%=      5-min Rain = 0
KTIS 151545Z 33015KT 26/15 A2986 RMK A01 T02580153  RH  055%=      5-min Rain = 0
KTIS 151550Z 34015G21KT 26/16 A2987 RMK A01 T02570155  RH  056%=      5-min Rain = 0
KTIS 151555Z 33015KT 26/16 A2987 RMK A01 T02570155  RH  056%=      5-min Rain = 0
KTIS 151600Z 33016KT 26/16 A2987 RMK A01 T02560155  RH  056%=      5-min Rain = 0
KTIS 151605Z 34016KT 26/15 A2987 RMK A01 T02590154  RH  055%=      5-min Rain = 0
KTIS 151610Z 33015G21KT 26/15 A2987 RMK A01 T02580153  RH  055%=      5-min Rain = 0
KTIS 151615Z 34015G21KT 26/15 A2987 RMK A01 T02600152  RH  054%=      5-min Rain = 0
KTIS 151620Z 34016G21KT 26/15 A2987 RMK A01 T02620151  RH  053%=      5-min Rain = 0
KTIS 151625Z 35015G20KT 26/15 A2987 RMK A01 T02620149  RH  052%=      5-min Rain = 0
KTIS 151630Z 33015KT 26/15 A2987 RMK A01 T02640151  RH  052%=      5-min Rain = 0
KTIS 151635Z 35015G20KT 27/15 A2987 RMK A01 T02700146  RH  049%=      5-min Rain = 0
KTIS 151640Z 34016G22KT 27/14 A2987 RMK A01 T02690144  RH  048%=      5-min Rain = 0
KTIS 151645Z 35014G20KT 27/15 A2987 RMK A01 T02730145  RH  047%=      5-min Rain = 0
KTIS 151650Z 35015G20KT 27/14 A2987 RMK A01 T02730143  RH  047%=      5-min Rain = 0
KTIS 151655Z 35014G19KT 28/15 A2987 RMK A01 T02770146  RH  047%=      5-min Rain = 0
KTIS 151700Z 35014G20KT 28/15 A2986 RMK A01 T02780146  RH  046%=      5-min Rain = 0
KTIS 151705Z 35014G20KT 28/15 A2986 RMK A01 T02800145  RH  046%=      5-min Rain = 0
KTIS 151710Z 01013G20KT 28/14 A2987 RMK A01 T02800139  RH  044%=      5-min Rain = 0
KTIS 151715Z 36013KT 28/14 A2987 RMK A01 T02810143  RH  045%=      5-min Rain = 0
KTIS 151720Z 35013G19KT 28/14 A2987 RMK A01 T02800140  RH  044%=      5-min Rain = 0
KTIS 151725Z 00012KT 28/14 A2988 RMK A01 T02810137  RH  043%=      5-min Rain = 0
KTIS 151730Z 00012G17KT 28/14 A2987 RMK A01 T02830142  RH  044%=      5-min Rain = 0
KTIS 151735Z 36014KT 29/15 A2987 RMK A01 T02860146  RH  044%=      5-min Rain = 0
KTIS 151740Z 01011KT 29/14 A2987 RMK A01 T02880143  RH  043%=      5-min Rain = 0
KTIS 151745Z 35011G16KT 29/15 A2987 RMK A01 T02850146  RH  044%=      5-min Rain = 0
KTIS 151750Z 36012KT 29/15 A2987 RMK A01 T02860147  RH  044%=      5-min Rain = 0
KTIS 151755Z 00011KT 29/15 A2988 RMK A01 T02880148  RH  044%=      5-min Rain = 0
KTIS 151800Z 34011KT 29/15 A2988 RMK A01 T02920153  RH  045%=      5-min Rain = 0
KTIS 151805Z 34010KT 29/16 A2988 RMK A01 T02940155  RH  045%=      5-min Rain = 0
KTIS 151810Z 33011KT 30/15 A2988 RMK A01 T02960149  RH  043%=      5-min Rain = 0
KTIS 151815Z 33011KT 30/15 A2988 RMK A01 T02990154  RH  043%=      5-min Rain = 0
KTIS 151820Z 34010G16KT 30/16 A2988 RMK A01 T02980155  RH  044%=      5-min Rain = 0
KTIS 151825Z 34010KT 30/16 A2988 RMK A01 T02990157  RH  044%=      5-min Rain = 0
KTIS 151830Z 34012G17KT 30/16 A2988 RMK A01 T03000155  RH  043%=      5-min Rain = 0
KTIS 151835Z 34010G17KT 30/16 A2987 RMK A01 T03000157  RH  044%=      5-min Rain = 0
KTIS 151840Z 35012KT 30/16 A2987 RMK A01 T03020155  RH  043%=      5-min Rain = 0
KTIS 151845Z 35011KT 30/16 A2987 RMK A01 T03030158  RH  043%=      5-min Rain = 0
KTIS 151850Z 34010G15KT 30/16 A2987 RMK A01 T03040157  RH  043%=      5-min Rain = 0
KTIS 151855Z 35010G15KT 31/16 A2987 RMK A01 T03060157  RH  043%=      5-min Rain = 0
KTIS 151900Z 35009G14KT 31/16 A2987 RMK A01 T03060161  RH  044%=      5-min Rain = 0
KTIS 151905Z 33009KT 31/15 A2987 RMK A01 T03090154  RH  041%=      5-min Rain = 0
KTIS 151910Z 34009KT 31/16 A2987 RMK A01 T03070157  RH  042%=      5-min Rain = 0
KTIS 151915Z 33010G15KT 31/16 A2987 RMK A01 T03090156  RH  042%=      5-min Rain = 0
KTIS 151920Z 33009KT 31/16 A2986 RMK A01 T03120156  RH  041%=      5-min Rain = 0
KTIS 151925Z 35011G16KT 31/16 A2986 RMK A01 T03130160  RH  042%=      5-min Rain = 0
KTIS 151930Z 34011KT 31/16 A2987 RMK A01 T03110156  RH  041%=      5-min Rain = 0
KTIS 151935Z 35009G16KT 31/16 A2987 RMK A01 T03110158  RH  042%=      5-min Rain = 0
KTIS 151940Z 01009G14KT 31/16 A2986 RMK A01 T03090157  RH  042%=      5-min Rain = 0
KTIS 151945Z 35010KT 31/16 A2986 RMK A01 T03130159  RH  042%=      5-min Rain = 0
KTIS 151950Z 35010G15KT 32/16 A2986 RMK A01 T03180158  RH  040%=      5-min Rain = 0
KTIS 151955Z 01010KT 32/17 A2986 RMK A01 T03180165  RH  042%=      5-min Rain = 0
KTIS 152000Z 00010KT 31/16 A2986 RMK A01 T03130157  RH  041%=      5-min Rain = 0
KTIS 152005Z 01011G16KT 32/16 A2986 RMK A01 T03160160  RH  041%=      5-min Rain = 0
KTIS 152010Z 02012G19KT 32/16 A2986 RMK A01 T03180164  RH  042%=      5-min Rain = 0
KTIS 152015Z 03011KT 31/16 A2986 RMK A01 T03110159  RH  042%=      5-min Rain = 0
KTIS 152020Z 03012G17KT 31/16 A2986 RMK A01 T03130160  RH  042%=      5-min Rain = 0
KTIS 152025Z 01012KT 32/16 A2986 RMK A01 T03170160  RH  041%=      5-min Rain = 0
KTIS 152030Z 01012KT 32/16 A2985 RMK A01 T03170160  RH  041%=      5-min Rain = 0
KTIS 152035Z 03009G17KT 32/16 A2985 RMK A01 T03170157  RH  040%=      5-min Rain = 0
KTIS 152040Z 02012KT 32/16 A2985 RMK A01 T03200158  RH  039%=      5-min Rain = 0
KTIS 152045Z 02011G18KT 32/17 A2985 RMK A01 T03190166  RH  042%=      5-min Rain = 0
KTIS 152050Z 03012KT 32/17 A2985 RMK A01 T03200169  RH  042%=      5-min Rain = 0
KTIS 152055Z 01012G18KT 32/16 A2984 RMK A01 T03190163  RH  041%=      5-min Rain = 0
KTIS 152100Z 04014G20KT 32/17 A2984 RMK A01 T03190167  RH  042%=      5-min Rain = 0
KTIS 152105Z 04013KT 32/16 A2984 RMK A01 T03190164  RH  041%=      5-min Rain = 0
KTIS 152110Z 04012G20KT 32/17 A2983 RMK A01 T03210165  RH  041%=      5-min Rain = 0
KTIS 152115Z 04013G18KT 32/16 A2983 RMK A01 T03180160  RH  041%=      5-min Rain = 0
KTIS 152120Z 04013G18KT 31/16 A2983 RMK A01 T03090160  RH  043%=      5-min Rain = 0
KTIS 152125Z 02013G19KT 31/16 A2983 RMK A01 T03060155  RH  042%=      5-min Rain = 0
KTIS 152130Z 02011KT 30/15 A2983 RMK A01 T03020151  RH  042%=      5-min Rain = 0
KTIS 152135Z 02009G14KT 30/16 A2984 RMK A01 T02990157  RH  044%=      5-min Rain = 0
KTIS 152140Z 03011G16KT 30/16 A2983 RMK A01 T02980155  RH  044%=      5-min Rain = 0
KTIS 152145Z 03009G14KT 30/16 A2984 RMK A01 T02960158  RH  045%=      5-min Rain = 0
KTIS 152150Z 03010G15KT 29/16 A2984 RMK A01 T02940156  RH  045%=      5-min Rain = 0
KTIS 152155Z 03011G17KT 29/16 A2983 RMK A01 T02920158  RH  047%=      5-min Rain = 0
KTIS 152200Z 04010KT 29/16 A2983 RMK A01 T02900160  RH  048%=      5-min Rain = 0
KTIS 152205Z 03008KT 29/16 A2984 RMK A01 T02880160  RH  048%=      5-min Rain = 0
KTIS 152210Z 02007KT 29/16 A2985 RMK A01 T02880160  RH  048%=      5-min Rain = 0
KTIS 152215Z 02005KT 29/16 A2987 RMK A01 T02880162  RH  049%=      5-min Rain = 0
KTIS 152220Z 02006KT 29/17 A2988 RMK A01 T02870165  RH  050%=      5-min Rain = 0
KTIS 152225Z 06006KT 29/17 A2989 RMK A01 T02850167  RH  051%=      5-min Rain = 0
KTIS 152230Z 20008G16KT 29/09 A2989 RMK A01 T02880091  RH  033%=      5-min Rain = 0
KTIS 152235Z 03008G18KT 29/08 A2988 RMK A01 T02940084  RH  028%=      5-min Rain = 0
KTIS 152240Z 05011KT 28/15 A2988 RMK A01 T02780154  RH  049%=      5-min Rain = 0
KTIS 152245Z 01009G14KT 27/16 A2988 RMK A01 T02720161  RH  053%=      5-min Rain = 0
KTIS 152250Z 35008KT 28/16 A2988 RMK A01 T02760159  RH  051%=      5-min Rain = 0
KTIS 152255Z 32011KT 27/16 A2987 RMK A01 T02740160  RH  052%=      5-min Rain = 0
KTIS 152300Z 31016G31KT 27/16 A2988 RMK A01 T02690159  RH  054%=      5-min Rain = 0
KTIS 152305Z 29014G21KT 26/12 A2989 RMK A01 T02580118  RH  043%=      5-min Rain = 0
KTIS 152310Z 25011G21KT 24/11 A2991 RMK A01 T02410111  RH  046%=      5-min Rain = 0.06
KTIS 152315Z 14010KT 21/13 A2991 RMK A01 T02100131  RH  063%=      5-min Rain = 0.04
KTIS 152320Z 08020G28KT 21/12 A2988 RMK A01 T02140115  RH  055%=      5-min Rain = 0
KTIS 152325Z 04022G29KT 21/12 A2987 RMK A01 T02130119  RH  057%=      5-min Rain = 0
KTIS 152330Z 03021G30KT 21/12 A2986 RMK A01 T02070119  RH  059%=      5-min Rain = 0
KTIS 152335Z 06021G26KT 20/11 A2986 RMK A01 T02000113  RH  059%=      5-min Rain = 0
KTIS 152340Z 05020G25KT 20/11 A2985 RMK A01 T02000110  RH  058%=      5-min Rain = 0
KTIS 152345Z 01017G24KT 20/11 A2985 RMK A01 T02010107  RH  057%=      5-min Rain = 0
KTIS 152350Z 00016G22KT 19/11 A2987 RMK A01 T01930111  RH  061%=      5-min Rain = 0
KTIS 152355Z 02016G25KT 19/11 A2988 RMK A01 T01910109  RH  061%=      5-min Rain = 0
KTIS 160000Z 03017G22KT 19/11 A2986 RMK A01 T01930109  RH  060%=      5-min Rain = 0
KTIS 160005Z 03017G24KT 19/11 A2986 RMK A01 T01920105  RH  059%=      5-min Rain = 0
KTIS 160010Z 02019G26KT 20/10 A2988 RMK A01 T01950102  RH  057%=      5-min Rain = 0
KTIS 160015Z 03020G27KT 20/10 A2989 RMK A01 T01960101  RH  056%=      5-min Rain = 0
KTIS 160020Z 04018G23KT 19/11 A299 RMK A01 T01920105  RH  059%=      5-min Rain = 0
KTIS 160025Z 05016G21KT 19/11 A2991 RMK A01 T01900107  RH  060%=      5-min Rain = 0
KTIS 160030Z 04017G24KT 19/11 A299 RMK A01 T01940105  RH  058%=      5-min Rain = 0
KTIS 160035Z 04017G22KT 20/10 A2991 RMK A01 T01990102  RH  056%=      5-min Rain = 0
KTIS 160040Z 03017G24KT 20/10 A2992 RMK A01 T02000102  RH  055%=      5-min Rain = 0
KTIS 160045Z 05019G25KT 20/10 A2991 RMK A01 T01980103  RH  056%=      5-min Rain = 0
KTIS 160050Z 06017G23KT 19/11 A2991 RMK A01 T01940106  RH  059%=      5-min Rain = 0
KTIS 160055Z 05016G21KT 19/11 A2992 RMK A01 T01900107  RH  061%=      5-min Rain = 0
KTIS 160100Z 04014KT 19/11 A2993 RMK A01 T01890108  RH  061%=      5-min Rain = 0
KTIS 160105Z 06014KT 19/11 A2992 RMK A01 T01860108  RH  063%=      5-min Rain = 0
KTIS 160110Z 05016KT 19/11 A299 RMK A01 T01870106  RH  061%=      5-min Rain = 0
KTIS 160115Z 05016KT 19/11 A299 RMK A01 T01880106  RH  061%=      5-min Rain = 0
KTIS 160120Z 05016KT 19/11 A2989 RMK A01 T01890105  RH  060%=      5-min Rain = 0
KTIS 160125Z 05015KT 19/10 A2989 RMK A01 T01910103  RH  059%=      5-min Rain = 0
KTIS 160130Z 06015KT 19/10 A2989 RMK A01 T01930101  RH  057%=      5-min Rain = 0
KTIS 160135Z 06012KT 20/10 A2989 RMK A01 T01950101  RH  056%=      5-min Rain = 0
KTIS 160140Z 05010KT 19/10 A2989 RMK A01 T01930103  RH  058%=      5-min Rain = 0
KTIS 160145Z 06009KT 19/10 A2987 RMK A01 T01930103  RH  058%=      5-min Rain = 0
KTIS 160150Z 07004KT 19/11 A2987 RMK A01 T01900106  RH  060%=      5-min Rain = 0
KTIS 160155Z 13004KT 19/11 A2985 RMK A01 T01890108  RH  062%=      5-min Rain = 0
KTIS 160200Z 13003KT 19/11 A2985 RMK A01 T01860109  RH  063%=      5-min Rain = 0
KTIS 160205Z 10005KT 19/11 A2983 RMK A01 T01900105  RH  060%=      5-min Rain = 0
KTIS 160210Z 09010KT 19/11 A2981 RMK A01 T01920105  RH  059%=      5-min Rain = 0
KTIS 160215Z 08010KT 19/11 A2981 RMK A01 T01930107  RH  059%=      5-min Rain = 0
KTIS 160220Z 10011KT 19/11 A2981 RMK A01 T01880110  RH  063%=      5-min Rain = 0
KTIS 160225Z 11012KT 19/11 A2981 RMK A01 T01910106  RH  060%=      5-min Rain = 0
KTIS 160230Z 11011KT 19/11 A2982 RMK A01 T01910107  RH  060%=      5-min Rain = 0
KTIS 160235Z 10010KT 19/11 A2983 RMK A01 T01890109  RH  062%=      5-min Rain = 0
KTIS 160240Z 10010KT 19/11 A2983 RMK A01 T01890107  RH  061%=      5-min Rain = 0
KTIS 160245Z 10009KT 19/11 A2983 RMK A01 T01890106  RH  061%=      5-min Rain = 0
KTIS 160250Z 08009KT 19/11 A2984 RMK A01 T01900106  RH  060%=      5-min Rain = 0
KTIS 160255Z 07008KT 19/11 A2984 RMK A01 T01880107  RH  061%=      5-min Rain = 0
KTIS 160300Z 09007KT 19/11 A2984 RMK A01 T01880105  RH  060%=      5-min Rain = 0
KTIS 160305Z 08007KT 19/11 A2985 RMK A01 T01870106  RH  061%=      5-min Rain = 0
KTIS 160310Z 09007KT 19/11 A2985 RMK A01 T01850108  RH  063%=      5-min Rain = 0
KTIS 160315Z 08006KT 18/11 A2985 RMK A01 T01820109  RH  064%=      5-min Rain = 0
KTIS 160320Z 05006KT 18/11 A2985 RMK A01 T01790110  RH  066%=      5-min Rain = 0
KTIS 160325Z 33019G33KT 18/11 A299 RMK A01 T01770111  RH  067%=      5-min Rain = 0
KTIS 160330Z 02012G23KT 21/09 A299 RMK A01 T02070086  RH  047%=      5-min Rain = 0
KTIS 160335Z 36011G17KT 21/09 A2991 RMK A01 T02140087  RH  045%=      5-min Rain = 0
KTIS 160340Z 03005KT 21/09 A2991 RMK A01 T02080092  RH  049%=      5-min Rain = 0
KTIS 160345Z 03008KT 20/09 A2992 RMK A01 T02030094  RH  051%=      5-min Rain = 0
KTIS 160350Z 06008KT 20/10 A299 RMK A01 T01980096  RH  053%=      5-min Rain = 0
KTIS 160355Z 04008KT 20/10 A2991 RMK A01 T01950099  RH  055%=      5-min Rain = 0
KTIS 160400Z 03007KT 19/10 A2991 RMK A01 T01920100  RH  057%=      5-min Rain = 0
KTIS 160405Z 02007KT 19/10 A2992 RMK A01 T01930099  RH  056%=      5-min Rain = 0
KTIS 160410Z 03006KT 19/10 A2992 RMK A01 T01930101  RH  057%=      5-min Rain = 0
KTIS 160415Z 02005KT 19/10 A2992 RMK A01 T01900102  RH  059%=      5-min Rain = 0
KTIS 160420Z 02006KT 19/10 A2992 RMK A01 T01870102  RH  060%=      5-min Rain = 0
KTIS 160425Z 01004KT 18/10 A2992 RMK A01 T01840104  RH  062%=      5-min Rain = 0
KTIS 160430Z 02004KT 18/11 A2992 RMK A01 T01800109  RH  065%=      5-min Rain = 0
KTIS 160435Z 03003KT 18/11 A2992 RMK A01 T01780108  RH  066%=      5-min Rain = 0
KTIS 160440Z 04004KT 18/11 A2993 RMK A01 T01780107  RH  066%=      5-min Rain = 0
KTIS 160445Z 03005KT 18/11 A2993 RMK A01 T01760108  RH  067%=      5-min Rain = 0
KTIS 160450Z 03006KT 18/11 A2992 RMK A01 T01770110  RH  067%=      5-min Rain = 0
KTIS 160455Z 04006KT 18/11 A2993 RMK A01 T01780113  RH  068%=      5-min Rain = 0

Page generated in 0.0091 seconds.